sensor_id;sensor_type;location;lat;lon;timestamp;pressure;altitude;pressure_sealevel;temperature;humidity
5703;BME280;2876;51.738;10.050;2022-08-21T00:04:18;99379.81;;;18.65;100.00
5703;BME280;2876;51.738;10.050;2022-08-21T00:10:24;99369.63;;;18.72;100.00
5703;BME280;2876;51.738;10.050;2022-08-21T00:16:27;99378.59;;;18.72;100.00
5703;BME280;2876;51.738;10.050;2022-08-21T00:22:29;99379.91;;;18.92;100.00
5703;BME280;2876;51.738;10.050;2022-08-21T00:28:31;99378.38;;;18.40;100.00
5703;BME280;2876;51.738;10.050;2022-08-21T00:34:33;99368.22;;;18.52;100.00
5703;BME280;2876;51.738;10.050;2022-08-21T00:40:50;99374.69;;;18.30;100.00
5703;BME280;2876;51.738;10.050;2022-08-21T00:46:52;99368.19;;;18.31;100.00
5703;BME280;2876;51.738;10.050;2022-08-21T00:52:57;99350.25;;;18.30;100.00
5703;BME280;2876;51.738;10.050;2022-08-21T00:59:02;99358.97;;;18.32;100.00
5703;BME280;2876;51.738;10.050;2022-08-21T01:05:05;99362.25;;;18.34;100.00
5703;BME280;2876;51.738;10.050;2022-08-21T01:11:07;99365.78;;;18.34;100.00
5703;BME280;2876;51.738;10.050;2022-08-21T01:17:12;99363.88;;;18.35;100.00
5703;BME280;2876;51.738;10.050;2022-08-21T01:23:15;99360.13;;;18.36;100.00
5703;BME280;2876;51.738;10.050;2022-08-21T01:29:57;99360.53;;;18.28;100.00
5703;BME280;2876;51.738;10.050;2022-08-21T01:35:59;99359.88;;;18.20;100.00
5703;BME280;2876;51.738;10.050;2022-08-21T01:42:02;99354.22;;;17.88;100.00
5703;BME280;2876;51.738;10.050;2022-08-21T01:48:04;99365.72;;;17.79;100.00
5703;BME280;2876;51.738;10.050;2022-08-21T01:54:07;99361.25;;;17.56;100.00
5703;BME280;2876;51.738;10.050;2022-08-21T02:00:14;99363.78;;;17.45;100.00
5703;BME280;2876;51.738;10.050;2022-08-21T02:06:16;99366.41;;;17.57;100.00
5703;BME280;2876;51.738;10.050;2022-08-21T02:12:19;99365.53;;;17.23;100.00
5703;BME280;2876;51.738;10.050;2022-08-21T02:18:22;99361.38;;;17.32;100.00
5703;BME280;2876;51.738;10.050;2022-08-21T02:24:24;99344.28;;;17.32;100.00
5703;BME280;2876;51.738;10.050;2022-08-21T02:30:33;99336.63;;;17.29;100.00
5703;BME280;2876;51.738;10.050;2022-08-21T02:36:36;99342.84;;;17.12;100.00
5703;BME280;2876;51.738;10.050;2022-08-21T02:42:38;99341.53;;;17.03;100.00
5703;BME280;2876;51.738;10.050;2022-08-21T02:48:42;99344.59;;;16.78;100.00
5703;BME280;2876;51.738;10.050;2022-08-21T02:54:44;99355.66;;;16.77;100.00
5703;BME280;2876;51.738;10.050;2022-08-21T03:00:46;99335.41;;;16.67;100.00
5703;BME280;2876;51.738;10.050;2022-08-21T03:06:48;99323.50;;;16.68;100.00
5703;BME280;2876;51.738;10.050;2022-08-21T03:12:51;99338.81;;;16.63;100.00
5703;BME280;2876;51.738;10.050;2022-08-21T03:18:53;99326.81;;;16.59;100.00
5703;BME280;2876;51.738;10.050;2022-08-21T03:24:55;99333.78;;;16.43;100.00
5703;BME280;2876;51.738;10.050;2022-08-21T03:30:58;99337.91;;;16.34;100.00
5703;BME280;2876;51.738;10.050;2022-08-21T03:37:00;99355.34;;;16.26;100.00
5703;BME280;2876;51.738;10.050;2022-08-21T03:43:03;99347.44;;;16.36;100.00
5703;BME280;2876;51.738;10.050;2022-08-21T03:49:05;99341.09;;;16.19;100.00
5703;BME280;2876;51.738;10.050;2022-08-21T03:55:07;99360.75;;;16.14;100.00
5703;BME280;2876;51.738;10.050;2022-08-21T04:01:09;99352.63;;;16.14;100.00
5703;BME280;2876;51.738;10.050;2022-08-21T04:07:11;99357.31;;;16.07;100.00
5703;BME280;2876;51.738;10.050;2022-08-21T04:13:13;99361.91;;;16.07;100.00
5703;BME280;2876;51.738;10.050;2022-08-21T04:19:16;99371.22;;;16.11;100.00
5703;BME280;2876;51.738;10.050;2022-08-21T04:25:21;99370.31;;;16.17;100.00
5703;BME280;2876;51.738;10.050;2022-08-21T04:31:24;99376.38;;;16.12;100.00
5703;BME280;2876;51.738;10.050;2022-08-21T04:37:27;99386.03;;;16.20;100.00
5703;BME280;2876;51.738;10.050;2022-08-21T04:43:29;99390.97;;;16.35;100.00
5703;BME280;2876;51.738;10.050;2022-08-21T04:49:31;99389.47;;;16.39;100.00
5703;BME280;2876;51.738;10.050;2022-08-21T04:55:33;99404.41;;;16.53;100.00
5703;BME280;2876;51.738;10.050;2022-08-21T05:01:37;99398.63;;;16.61;100.00
5703;BME280;2876;51.738;10.050;2022-08-21T05:07:42;99406.28;;;16.64;100.00
5703;BME280;2876;51.738;10.050;2022-08-21T05:13:46;99391.22;;;16.68;100.00
5703;BME280;2876;51.738;10.050;2022-08-21T05:19:55;99395.22;;;16.66;100.00
5703;BME280;2876;51.738;10.050;2022-08-21T05:25:57;99404.91;;;16.73;100.00
5703;BME280;2876;51.738;10.050;2022-08-21T05:32:00;99405.41;;;17.11;100.00
5703;BME280;2876;51.738;10.050;2022-08-21T05:38:04;99411.06;;;17.09;100.00
5703;BME280;2876;51.738;10.050;2022-08-21T05:44:15;99414.78;;;17.32;100.00
5703;BME280;2876;51.738;10.050;2022-08-21T05:50:17;99403.78;;;17.67;100.00
5703;BME280;2876;51.738;10.050;2022-08-21T05:56:19;99406.03;;;17.87;100.00
5703;BME280;2876;51.738;10.050;2022-08-21T06:02:22;99398.00;;;18.09;100.00
5703;BME280;2876;51.738;10.050;2022-08-21T06:08:24;99405.72;;;18.17;100.00
5703;BME280;2876;51.738;10.050;2022-08-21T06:14:26;99415.41;;;18.30;100.00
5703;BME280;2876;51.738;10.050;2022-08-21T06:20:29;99411.06;;;18.45;100.00
5703;BME280;2876;51.738;10.050;2022-08-21T06:26:31;99420.88;;;18.85;99.13
5703;BME280;2876;51.738;10.050;2022-08-21T06:32:35;99417.94;;;18.70;98.26
5703;BME280;2876;51.738;10.050;2022-08-21T06:38:38;99421.09;;;18.45;99.12
5703;BME280;2876;51.738;10.050;2022-08-21T06:44:40;99419.19;;;18.45;100.00
5703;BME280;2876;51.738;10.050;2022-08-21T06:50:42;99410.31;;;18.50;99.39
5703;BME280;2876;51.738;10.050;2022-08-21T06:56:44;99407.56;;;18.67;99.22
5703;BME280;2876;51.738;10.050;2022-08-21T07:02:46;99398.91;;;19.09;96.40
5703;BME280;2876;51.738;10.050;2022-08-21T07:08:48;99406.81;;;19.37;97.31
5703;BME280;2876;51.738;10.050;2022-08-21T07:14:50;99393.78;;;19.61;95.26
5703;BME280;2876;51.738;10.050;2022-08-21T07:20:52;99393.25;;;19.91;93.48
5703;BME280;2876;51.738;10.050;2022-08-21T07:26:55;99398.66;;;19.86;92.53
5703;BME280;2876;51.738;10.050;2022-08-21T07:32:57;99400.38;;;20.35;91.02
5703;BME280;2876;51.738;10.050;2022-08-21T07:38:59;99376.75;;;20.45;90.93
5703;BME280;2876;51.738;10.050;2022-08-21T07:45:02;99390.78;;;20.59;90.19
5703;BME280;2876;51.738;10.050;2022-08-21T07:51:11;99391.16;;;20.83;89.37
5703;BME280;2876;51.738;10.050;2022-08-21T07:57:13;99385.38;;;21.32;86.83
5703;BME280;2876;51.738;10.050;2022-08-21T08:03:19;99387.66;;;22.07;85.07
5703;BME280;2876;51.738;10.050;2022-08-21T08:09:29;99384.91;;;22.52;82.20
5703;BME280;2876;51.738;10.050;2022-08-21T08:15:32;99380.75;;;22.70;79.74
5703;BME280;2876;51.738;10.050;2022-08-21T08:21:38;99394.94;;;22.83;78.80
5703;BME280;2876;51.738;10.050;2022-08-21T08:27:40;99388.78;;;22.26;78.44
5703;BME280;2876;51.738;10.050;2022-08-21T08:33:43;99382.69;;;22.65;76.83
5703;BME280;2876;51.738;10.050;2022-08-21T08:39:45;99382.06;;;23.53;74.45
5703;BME280;2876;51.738;10.050;2022-08-21T08:45:51;99368.97;;;23.45;75.04
5703;BME280;2876;51.738;10.050;2022-08-21T08:52:27;99374.59;;;24.03;74.12
5703;BME280;2876;51.738;10.050;2022-08-21T08:58:35;99374.69;;;24.80;68.78
5703;BME280;2876;51.738;10.050;2022-08-21T09:04:39;99368.56;;;25.31;65.66
5703;BME280;2876;51.738;10.050;2022-08-21T09:30:12;99363.53;;;25.76;60.68
5703;BME280;2876;51.738;10.050;2022-08-21T09:42:33;99354.81;;;26.94;61.69
5703;BME280;2876;51.738;10.050;2022-08-21T09:49:03;99352.97;;;27.03;60.21
5703;BME280;2876;51.738;10.050;2022-08-21T09:55:39;99356.06;;;27.38;55.25
5703;BME280;2876;51.738;10.050;2022-08-21T10:02:25;99358.47;;;28.35;51.30
5703;BME280;2876;51.738;10.050;2022-08-21T10:08:28;99348.09;;;28.40;48.80
5703;BME280;2876;51.738;10.050;2022-08-21T10:15:05;99341.72;;;28.62;46.61
5703;BME280;2876;51.738;10.050;2022-08-21T10:21:27;99340.00;;;29.67;45.54
5703;BME280;2876;51.738;10.050;2022-08-21T10:40:41;99318.94;;;31.15;37.75
5703;BME280;2876;51.738;10.050;2022-08-21T11:00:13;99317.22;;;32.64;36.55
5703;BME280;2876;51.738;10.050;2022-08-21T11:06:24;99313.88;;;32.95;37.16
5703;BME280;2876;51.738;10.050;2022-08-21T11:12:46;99314.00;;;34.23;33.60
5703;BME280;2876;51.738;10.050;2022-08-21T11:19:17;99296.59;;;33.02;36.59
5703;BME280;2876;51.738;10.050;2022-08-21T11:25:37;99308.88;;;35.04;32.59
5703;BME280;2876;51.738;10.050;2022-08-21T11:38:42;99295.63;;;35.37;29.68
5703;BME280;2876;51.738;10.050;2022-08-21T11:45:17;99297.50;;;36.10;28.92
5703;BME280;2876;51.738;10.050;2022-08-21T11:58:25;99287.09;;;34.94;28.86
5703;BME280;2876;51.738;10.050;2022-08-21T12:04:35;99284.53;;;36.67;27.31
5703;BME280;2876;51.738;10.050;2022-08-21T12:17:26;99282.47;;;37.81;25.50
5703;BME280;2876;51.738;10.050;2022-08-21T12:24:05;99278.59;;;37.25;26.32
5703;BME280;2876;51.738;10.050;2022-08-21T12:37:02;99270.47;;;38.21;24.32
5703;BME280;2876;51.738;10.050;2022-08-21T12:43:05;99271.84;;;37.97;24.69
5703;BME280;2876;51.738;10.050;2022-08-21T12:55:29;99261.88;;;40.22;24.23
5703;BME280;2876;51.738;10.050;2022-08-21T13:01:38;99269.47;;;40.97;22.83
5703;BME280;2876;51.738;10.050;2022-08-21T13:07:47;99266.25;;;42.49;21.88
5703;BME280;2876;51.738;10.050;2022-08-21T13:13:52;99253.19;;;43.07;19.92
5703;BME280;2876;51.738;10.050;2022-08-21T13:20:22;99248.03;;;42.05;21.67
5703;BME280;2876;51.738;10.050;2022-08-21T13:26:25;99249.41;;;41.83;20.76
5703;BME280;2876;51.738;10.050;2022-08-21T13:32:27;99231.09;;;37.70;24.52
5703;BME280;2876;51.738;10.050;2022-08-21T13:38:35;99234.59;;;38.41;24.21
5703;BME280;2876;51.738;10.050;2022-08-21T13:44:42;99237.03;;;37.98;23.42
5703;BME280;2876;51.738;10.050;2022-08-21T13:50:45;99224.13;;;37.19;24.51
5703;BME280;2876;51.738;10.050;2022-08-21T13:56:47;99235.81;;;38.40;25.18
5703;BME280;2876;51.738;10.050;2022-08-21T14:02:52;99241.06;;;37.64;24.09
5703;BME280;2876;51.738;10.050;2022-08-21T14:09:13;99240.94;;;38.86;23.00
5703;BME280;2876;51.738;10.050;2022-08-21T14:15:25;99214.81;;;36.55;23.52
5703;BME280;2876;51.738;10.050;2022-08-21T14:21:40;99226.91;;;38.86;22.28
5703;BME280;2876;51.738;10.050;2022-08-21T14:27:51;99221.84;;;41.45;20.38
5703;BME280;2876;51.738;10.050;2022-08-21T14:33:55;99232.47;;;40.88;20.07
5703;BME280;2876;51.738;10.050;2022-08-21T14:39:57;99217.69;;;37.49;23.27
5703;BME280;2876;51.738;10.050;2022-08-21T14:46:00;99216.63;;;38.46;23.39
5703;BME280;2876;51.738;10.050;2022-08-21T14:52:03;99204.44;;;36.06;24.67
5703;BME280;2876;51.738;10.050;2022-08-21T14:58:05;99218.66;;;38.49;22.74
5703;BME280;2876;51.738;10.050;2022-08-21T15:04:07;99221.72;;;40.15;21.54
5703;BME280;2876;51.738;10.050;2022-08-21T15:10:10;99224.06;;;42.35;19.13
5703;BME280;2876;51.738;10.050;2022-08-21T15:16:13;99207.22;;;40.59;20.14
5703;BME280;2876;51.738;10.050;2022-08-21T15:22:15;99203.72;;;37.19;23.68
5703;BME280;2876;51.738;10.050;2022-08-21T15:28:28;99206.97;;;37.21;23.98
5703;BME280;2876;51.738;10.050;2022-08-21T15:34:32;99214.28;;;39.24;22.45
5703;BME280;2876;51.738;10.050;2022-08-21T15:40:36;99217.59;;;39.62;22.48
5703;BME280;2876;51.738;10.050;2022-08-21T15:46:40;99215.94;;;39.47;20.61
5703;BME280;2876;51.738;10.050;2022-08-21T15:52:42;99219.47;;;36.70;23.23
5703;BME280;2876;51.738;10.050;2022-08-21T15:58:44;99209.28;;;36.85;24.28
5703;BME280;2876;51.738;10.050;2022-08-21T16:04:46;99215.84;;;37.64;23.58
5703;BME280;2876;51.738;10.050;2022-08-21T16:10:49;99210.16;;;36.13;24.64
5703;BME280;2876;51.738;10.050;2022-08-21T16:16:52;99212.72;;;35.99;24.43
5703;BME280;2876;51.738;10.050;2022-08-21T16:22:56;99212.59;;;38.43;22.87
5703;BME280;2876;51.738;10.050;2022-08-21T16:29:00;99210.69;;;37.32;22.54
5703;BME280;2876;51.738;10.050;2022-08-21T16:35:04;99202.06;;;35.62;24.01
5703;BME280;2876;51.738;10.050;2022-08-21T16:41:15;99195.03;;;35.29;26.08
5703;BME280;2876;51.738;10.050;2022-08-21T16:47:18;99199.34;;;34.37;26.17
5703;BME280;2876;51.738;10.050;2022-08-21T16:53:28;99189.53;;;34.59;25.39
5703;BME280;2876;51.738;10.050;2022-08-21T16:59:30;99202.47;;;34.67;25.17
5703;BME280;2876;51.738;10.050;2022-08-21T17:05:32;99191.34;;;32.76;28.76
5703;BME280;2876;51.738;10.050;2022-08-21T17:11:43;99188.84;;;30.47;31.79
5703;BME280;2876;51.738;10.050;2022-08-21T17:17:46;99189.13;;;29.87;33.44
5703;BME280;2876;51.738;10.050;2022-08-21T17:23:48;99189.25;;;29.35;34.89
5703;BME280;2876;51.738;10.050;2022-08-21T17:29:50;99180.31;;;29.12;35.89
5703;BME280;2876;51.738;10.050;2022-08-21T17:35:53;99191.22;;;30.57;33.81
5703;BME280;2876;51.738;10.050;2022-08-21T17:41:56;99188.28;;;31.58;32.48
5703;BME280;2876;51.738;10.050;2022-08-21T17:48:02;99196.19;;;31.81;32.50
5703;BME280;2876;51.738;10.050;2022-08-21T17:54:05;99188.69;;;30.14;36.28
5703;BME280;2876;51.738;10.050;2022-08-21T18:00:11;99191.19;;;28.16;43.24
5703;BME280;2876;51.738;10.050;2022-08-21T18:06:15;99178.31;;;26.18;47.35
5703;BME280;2876;51.738;10.050;2022-08-21T18:12:18;99182.69;;;25.13;50.11
5703;BME280;2876;51.738;10.050;2022-08-21T18:18:23;99193.38;;;24.10;53.28
5703;BME280;2876;51.738;10.050;2022-08-21T18:24:26;99186.84;;;23.47;55.69
5703;BME280;2876;51.738;10.050;2022-08-21T18:30:28;99193.38;;;22.78;57.51
5703;BME280;2876;51.738;10.050;2022-08-21T18:36:30;99197.47;;;22.31;59.56
5703;BME280;2876;51.738;10.050;2022-08-21T18:42:42;99195.88;;;22.04;60.65
5703;BME280;2876;51.738;10.050;2022-08-21T18:48:56;99207.75;;;21.54;62.97
5703;BME280;2876;51.738;10.050;2022-08-21T18:54:59;99224.63;;;21.25;63.48
5703;BME280;2876;51.738;10.050;2022-08-21T19:01:11;99213.97;;;21.09;64.84
5703;BME280;2876;51.738;10.050;2022-08-21T19:07:15;99237.69;;;20.98;65.29
5703;BME280;2876;51.738;10.050;2022-08-21T19:13:20;99241.94;;;20.53;66.79
5703;BME280;2876;51.738;10.050;2022-08-21T19:19:23;99246.44;;;20.32;68.18
5703;BME280;2876;51.738;10.050;2022-08-21T19:25:26;99266.03;;;20.29;67.98
5703;BME280;2876;51.738;10.050;2022-08-21T19:31:41;99261.19;;;20.36;67.28
5703;BME280;2876;51.738;10.050;2022-08-21T19:37:44;99272.63;;;20.43;67.77
5703;BME280;2876;51.738;10.050;2022-08-21T19:43:53;99273.06;;;20.20;67.72
5703;BME280;2876;51.738;10.050;2022-08-21T19:49:58;99272.81;;;20.21;68.99
5703;BME280;2876;51.738;10.050;2022-08-21T19:56:04;99281.19;;;20.10;69.23
5703;BME280;2876;51.738;10.050;2022-08-21T20:02:09;99281.38;;;19.98;68.88
5703;BME280;2876;51.738;10.050;2022-08-21T20:08:11;99286.88;;;20.03;66.09
5703;BME280;2876;51.738;10.050;2022-08-21T20:14:25;99287.78;;;20.19;65.21
5703;BME280;2876;51.738;10.050;2022-08-21T20:20:31;99299.13;;;20.06;66.91
5703;BME280;2876;51.738;10.050;2022-08-21T20:26:33;99291.91;;;19.84;67.90
5703;BME280;2876;51.738;10.050;2022-08-21T20:32:36;99287.50;;;19.78;67.94
5703;BME280;2876;51.738;10.050;2022-08-21T20:38:39;99292.63;;;19.42;69.03
5703;BME280;2876;51.738;10.050;2022-08-21T20:44:41;99289.16;;;19.20;68.77
5703;BME280;2876;51.738;10.050;2022-08-21T20:50:51;99291.91;;;19.25;69.31
5703;BME280;2876;51.738;10.050;2022-08-21T21:03:31;99304.72;;;19.02;70.66
5703;BME280;2876;51.738;10.050;2022-08-21T21:09:41;99306.41;;;18.82;71.23
5703;BME280;2876;51.738;10.050;2022-08-21T21:15:46;99294.03;;;18.69;71.92
5703;BME280;2876;51.738;10.050;2022-08-21T21:22:21;99306.13;;;18.61;72.57
5703;BME280;2876;51.738;10.050;2022-08-21T21:28:45;99307.16;;;18.55;73.81
5703;BME280;2876;51.738;10.050;2022-08-21T21:34:49;99317.56;;;18.63;73.13
5703;BME280;2876;51.738;10.050;2022-08-21T22:00:41;99323.00;;;17.86;77.59
5703;BME280;2876;51.738;10.050;2022-08-21T22:07:44;99322.66;;;17.82;78.00
5703;BME280;2876;51.738;10.050;2022-08-21T22:13:45;99323.13;;;17.62;78.31
5703;BME280;2876;51.738;10.050;2022-08-21T22:19:50;99322.63;;;17.65;78.46
5703;BME280;2876;51.738;10.050;2022-08-21T22:26:03;99325.72;;;17.57;78.75
5703;BME280;2876;51.738;10.050;2022-08-21T22:32:08;99321.88;;;17.70;78.78
5703;BME280;2876;51.738;10.050;2022-08-21T22:38:32;99318.16;;;17.42;79.43
5703;BME280;2876;51.738;10.050;2022-08-21T22:44:52;99321.22;;;17.46;79.72
5703;BME280;2876;51.738;10.050;2022-08-21T22:51:29;99317.75;;;17.50;79.71
5703;BME280;2876;51.738;10.050;2022-08-21T22:57:34;99318.75;;;17.44;79.81
5703;BME280;2876;51.738;10.050;2022-08-21T23:03:57;99318.75;;;17.44;79.79
5703;BME280;2876;51.738;10.050;2022-08-21T23:10:30;99310.84;;;17.26;80.17
5703;BME280;2876;51.738;10.050;2022-08-21T23:23:28;99316.28;;;17.14;80.39
5703;BME280;2876;51.738;10.050;2022-08-21T23:36:32;99317.75;;;17.05;80.46
5703;BME280;2876;51.738;10.050;2022-08-21T23:49:49;99304.00;;;16.55;82.57
5703;BME280;2876;51.738;10.050;2022-08-21T23:56:51;99305.31;;;16.40;83.28
